sensor_id;sensor_type;location;lat;lon;timestamp;temperature;humidity
6429;DHT22;3247;48.946;10.220;2023-06-14T00:02:08;9.40;99.90
6429;DHT22;3247;48.946;10.220;2023-06-14T00:04:34;9.40;99.90
6429;DHT22;3247;48.946;10.220;2023-06-14T00:07:00;9.40;99.90
6429;DHT22;3247;48.946;10.220;2023-06-14T00:09:25;9.40;99.90
6429;DHT22;3247;48.946;10.220;2023-06-14T00:11:50;9.30;99.90
6429;DHT22;3247;48.946;10.220;2023-06-14T00:14:16;9.20;99.90
6429;DHT22;3247;48.946;10.220;2023-06-14T00:16:41;9.20;99.90
6429;DHT22;3247;48.946;10.220;2023-06-14T00:19:10;9.20;99.90
6429;DHT22;3247;48.946;10.220;2023-06-14T00:21:36;9.10;99.90
6429;DHT22;3247;48.946;10.220;2023-06-14T00:24:02;9.10;99.90
6429;DHT22;3247;48.946;10.220;2023-06-14T00:26:27;9.00;99.90
6429;DHT22;3247;48.946;10.220;2023-06-14T00:28:53;9.00;99.90
6429;DHT22;3247;48.946;10.220;2023-06-14T00:31:19;9.80;99.90
6429;DHT22;3247;48.946;10.220;2023-06-14T00:33:45;8.90;99.90
6429;DHT22;3247;48.946;10.220;2023-06-14T00:36:10;9.00;99.90
6429;DHT22;3247;48.946;10.220;2023-06-14T00:38:36;8.80;99.90
6429;DHT22;3247;48.946;10.220;2023-06-14T00:41:01;8.80;99.90
6429;DHT22;3247;48.946;10.220;2023-06-14T00:43:26;8.70;99.90
6429;DHT22;3247;48.946;10.220;2023-06-14T00:45:52;8.70;99.90
6429;DHT22;3247;48.946;10.220;2023-06-14T00:48:18;8.60;99.90
6429;DHT22;3247;48.946;10.220;2023-06-14T00:50:44;8.60;99.90
6429;DHT22;3247;48.946;10.220;2023-06-14T00:53:11;8.50;99.90
6429;DHT22;3247;48.946;10.220;2023-06-14T00:55:37;8.50;99.90
6429;DHT22;3247;48.946;10.220;2023-06-14T00:58:02;8.50;99.90
6429;DHT22;3247;48.946;10.220;2023-06-14T01:00:28;8.60;99.90
6429;DHT22;3247;48.946;10.220;2023-06-14T01:02:54;8.60;99.90
6429;DHT22;3247;48.946;10.220;2023-06-14T01:05:20;8.70;99.90
6429;DHT22;3247;48.946;10.220;2023-06-14T01:10:45;8.70;99.90
6429;DHT22;3247;48.946;10.220;2023-06-14T01:13:28;8.70;99.90
6429;DHT22;3247;48.946;10.220;2023-06-14T01:15:54;8.60;99.90
6429;DHT22;3247;48.946;10.220;2023-06-14T01:18:20;8.60;99.90
6429;DHT22;3247;48.946;10.220;2023-06-14T01:20:47;8.60;99.90
6429;DHT22;3247;48.946;10.220;2023-06-14T01:23:18;8.60;99.90
6429;DHT22;3247;48.946;10.220;2023-06-14T01:25:44;8.50;99.90
6429;DHT22;3247;48.946;10.220;2023-06-14T01:28:10;8.50;99.90
6429;DHT22;3247;48.946;10.220;2023-06-14T01:30:40;8.50;99.90
6429;DHT22;3247;48.946;10.220;2023-06-14T01:33:13;8.40;99.90
6429;DHT22;3247;48.946;10.220;2023-06-14T01:35:41;8.40;99.90
6429;DHT22;3247;48.946;10.220;2023-06-14T01:38:07;8.40;99.90
6429;DHT22;3247;48.946;10.220;2023-06-14T01:40:34;8.30;99.90
6429;DHT22;3247;48.946;10.220;2023-06-14T01:42:59;8.30;99.90
6429;DHT22;3247;48.946;10.220;2023-06-14T01:45:26;8.30;99.90
6429;DHT22;3247;48.946;10.220;2023-06-14T01:47:52;8.30;99.90
6429;DHT22;3247;48.946;10.220;2023-06-14T01:50:19;8.30;99.90
6429;DHT22;3247;48.946;10.220;2023-06-14T01:52:44;8.20;99.90
6429;DHT22;3247;48.946;10.220;2023-06-14T01:55:10;8.20;99.90
6429;DHT22;3247;48.946;10.220;2023-06-14T01:57:38;8.10;99.90
6429;DHT22;3247;48.946;10.220;2023-06-14T02:00:04;8.00;99.90
6429;DHT22;3247;48.946;10.220;2023-06-14T02:02:33;7.40;99.90
6429;DHT22;3247;48.946;10.220;2023-06-14T02:04:58;7.90;99.90
6429;DHT22;3247;48.946;10.220;2023-06-14T02:07:24;7.90;99.90
6429;DHT22;3247;48.946;10.220;2023-06-14T02:09:49;7.90;99.90
6429;DHT22;3247;48.946;10.220;2023-06-14T02:12:15;7.90;99.90
6429;DHT22;3247;48.946;10.220;2023-06-14T02:14:40;7.90;99.90
6429;DHT22;3247;48.946;10.220;2023-06-14T02:17:06;7.90;99.90
6429;DHT22;3247;48.946;10.220;2023-06-14T02:19:31;7.90;99.90
6429;DHT22;3247;48.946;10.220;2023-06-14T02:21:57;7.90;99.90
6429;DHT22;3247;48.946;10.220;2023-06-14T02:24:22;7.90;99.90
6429;DHT22;3247;48.946;10.220;2023-06-14T02:26:49;7.90;99.90
6429;DHT22;3247;48.946;10.220;2023-06-14T02:29:19;7.80;99.90
6429;DHT22;3247;48.946;10.220;2023-06-14T02:31:45;7.80;99.90
6429;DHT22;3247;48.946;10.220;2023-06-14T02:34:12;7.80;99.90
6429;DHT22;3247;48.946;10.220;2023-06-14T02:36:37;7.70;99.90
6429;DHT22;3247;48.946;10.220;2023-06-14T02:39:07;7.80;99.90
6429;DHT22;3247;48.946;10.220;2023-06-14T02:41:34;7.80;99.90
6429;DHT22;3247;48.946;10.220;2023-06-14T02:44:00;7.70;99.90
6429;DHT22;3247;48.946;10.220;2023-06-14T02:46:25;7.60;99.90
6429;DHT22;3247;48.946;10.220;2023-06-14T02:48:51;7.60;99.90
6429;DHT22;3247;48.946;10.220;2023-06-14T02:51:16;7.60;99.90
6429;DHT22;3247;48.946;10.220;2023-06-14T02:53:42;7.60;99.90
6429;DHT22;3247;48.946;10.220;2023-06-14T02:56:07;7.50;99.90
6429;DHT22;3247;48.946;10.220;2023-06-14T02:58:32;7.50;99.90
6429;DHT22;3247;48.946;10.220;2023-06-14T03:00:58;7.50;99.90
6429;DHT22;3247;48.946;10.220;2023-06-14T03:03:29;7.50;99.90
6429;DHT22;3247;48.946;10.220;2023-06-14T03:05:54;7.50;99.90
6429;DHT22;3247;48.946;10.220;2023-06-14T03:08:20;7.50;99.90
6429;DHT22;3247;48.946;10.220;2023-06-14T03:10:46;7.50;99.90
6429;DHT22;3247;48.946;10.220;2023-06-14T03:13:12;7.50;99.90
6429;DHT22;3247;48.946;10.220;2023-06-14T03:15:37;7.50;99.90
6429;DHT22;3247;48.946;10.220;2023-06-14T03:18:04;7.60;99.90
6429;DHT22;3247;48.946;10.220;2023-06-14T03:20:29;7.50;99.90
6429;DHT22;3247;48.946;10.220;2023-06-14T03:22:59;7.50;99.90
6429;DHT22;3247;48.946;10.220;2023-06-14T03:25:24;7.50;99.90
6429;DHT22;3247;48.946;10.220;2023-06-14T03:27:51;7.50;99.90
6429;DHT22;3247;48.946;10.220;2023-06-14T03:30:16;7.60;99.90
6429;DHT22;3247;48.946;10.220;2023-06-14T03:32:42;7.50;99.90
6429;DHT22;3247;48.946;10.220;2023-06-14T03:35:07;7.50;99.90
6429;DHT22;3247;48.946;10.220;2023-06-14T03:37:34;7.50;99.90
6429;DHT22;3247;48.946;10.220;2023-06-14T03:39:59;7.60;99.90
6429;DHT22;3247;48.946;10.220;2023-06-14T03:42:26;7.60;99.90
6429;DHT22;3247;48.946;10.220;2023-06-14T03:44:51;7.70;99.90
6429;DHT22;3247;48.946;10.220;2023-06-14T03:47:16;7.70;99.90
6429;DHT22;3247;48.946;10.220;2023-06-14T03:49:42;7.80;99.90
6429;DHT22;3247;48.946;10.220;2023-06-14T03:52:07;7.80;99.90
6429;DHT22;3247;48.946;10.220;2023-06-14T03:54:33;7.90;99.90
6429;DHT22;3247;48.946;10.220;2023-06-14T03:56:59;8.00;99.90
6429;DHT22;3247;48.946;10.220;2023-06-14T03:59:24;8.10;99.90
6429;DHT22;3247;48.946;10.220;2023-06-14T04:01:51;8.20;99.90
6429;DHT22;3247;48.946;10.220;2023-06-14T04:04:16;8.30;99.90
6429;DHT22;3247;48.946;10.220;2023-06-14T04:06:42;8.40;99.90
6429;DHT22;3247;48.946;10.220;2023-06-14T04:09:08;8.50;99.90
6429;DHT22;3247;48.946;10.220;2023-06-14T04:11:33;8.80;99.90
6429;DHT22;3247;48.946;10.220;2023-06-14T04:13:59;10.40;99.90
6429;DHT22;3247;48.946;10.220;2023-06-14T04:16:25;10.20;99.90
6429;DHT22;3247;48.946;10.220;2023-06-14T04:18:50;11.00;99.90
6429;DHT22;3247;48.946;10.220;2023-06-14T04:21:17;12.00;99.90
6429;DHT22;3247;48.946;10.220;2023-06-14T04:23:43;13.00;99.90
6429;DHT22;3247;48.946;10.220;2023-06-14T04:26:09;13.90;99.90
6429;DHT22;3247;48.946;10.220;2023-06-14T04:28:38;14.70;99.90
6429;DHT22;3247;48.946;10.220;2023-06-14T04:31:06;15.50;99.90
6429;DHT22;3247;48.946;10.220;2023-06-14T04:33:35;16.30;99.90
6429;DHT22;3247;48.946;10.220;2023-06-14T04:36:09;16.60;99.90
6429;DHT22;3247;48.946;10.220;2023-06-14T04:38:34;17.20;99.90
6429;DHT22;3247;48.946;10.220;2023-06-14T04:40:59;17.50;99.90
6429;DHT22;3247;48.946;10.220;2023-06-14T04:43:27;18.00;99.90
6429;DHT22;3247;48.946;10.220;2023-06-14T04:45:52;17.50;99.90
6429;DHT22;3247;48.946;10.220;2023-06-14T04:48:20;17.10;99.90
6429;DHT22;3247;48.946;10.220;2023-06-14T04:50:46;18.50;99.90
6429;DHT22;3247;48.946;10.220;2023-06-14T04:53:11;20.00;99.90
6429;DHT22;3247;48.946;10.220;2023-06-14T04:55:37;20.80;99.90
6429;DHT22;3247;48.946;10.220;2023-06-14T04:58:02;21.00;99.90
6429;DHT22;3247;48.946;10.220;2023-06-14T05:00:28;19.90;99.90
6429;DHT22;3247;48.946;10.220;2023-06-14T05:02:53;19.90;99.90
6429;DHT22;3247;48.946;10.220;2023-06-14T05:05:19;20.30;99.90
6429;DHT22;3247;48.946;10.220;2023-06-14T05:07:45;20.40;99.90
6429;DHT22;3247;48.946;10.220;2023-06-14T05:10:11;20.80;99.90
6429;DHT22;3247;48.946;10.220;2023-06-14T05:12:37;21.40;99.90
6429;DHT22;3247;48.946;10.220;2023-06-14T05:15:02;22.20;99.90
6429;DHT22;3247;48.946;10.220;2023-06-14T05:17:28;23.20;99.10
6429;DHT22;3247;48.946;10.220;2023-06-14T05:19:53;23.50;97.80
6429;DHT22;3247;48.946;10.220;2023-06-14T05:22:21;22.90;97.70
6429;DHT22;3247;48.946;10.220;2023-06-14T05:24:46;22.50;97.70
6429;DHT22;3247;48.946;10.220;2023-06-14T05:27:13;22.30;98.00
6429;DHT22;3247;48.946;10.220;2023-06-14T05:29:39;22.90;96.80
6429;DHT22;3247;48.946;10.220;2023-06-14T05:32:05;23.60;96.00
6429;DHT22;3247;48.946;10.220;2023-06-14T05:34:31;23.30;95.60
6429;DHT22;3247;48.946;10.220;2023-06-14T05:36:56;23.00;95.80
6429;DHT22;3247;48.946;10.220;2023-06-14T05:39:22;23.40;94.80
6429;DHT22;3247;48.946;10.220;2023-06-14T05:41:49;22.90;94.40
6429;DHT22;3247;48.946;10.220;2023-06-14T05:44:14;23.00;94.90
6429;DHT22;3247;48.946;10.220;2023-06-14T05:46:40;23.30;95.30
6429;DHT22;3247;48.946;10.220;2023-06-14T05:49:06;24.00;94.80
6429;DHT22;3247;48.946;10.220;2023-06-14T05:51:31;24.20;93.70
6429;DHT22;3247;48.946;10.220;2023-06-14T05:53:57;24.20;94.50
6429;DHT22;3247;48.946;10.220;2023-06-14T05:56:23;24.70;93.40
6429;DHT22;3247;48.946;10.220;2023-06-14T05:58:53;25.70;92.90
6429;DHT22;3247;48.946;10.220;2023-06-14T06:01:18;25.90;91.40
6429;DHT22;3247;48.946;10.220;2023-06-14T06:03:45;26.70;90.90
6429;DHT22;3247;48.946;10.220;2023-06-14T06:06:11;27.90;88.90
6429;DHT22;3247;48.946;10.220;2023-06-14T06:08:36;28.20;85.20
6429;DHT22;3247;48.946;10.220;2023-06-14T06:11:02;27.40;84.90
6429;DHT22;3247;48.946;10.220;2023-06-14T06:13:27;28.50;82.10
6429;DHT22;3247;48.946;10.220;2023-06-14T06:15:53;27.70;80.00
6429;DHT22;3247;48.946;10.220;2023-06-14T06:18:18;26.30;84.30
6429;DHT22;3247;48.946;10.220;2023-06-14T06:20:44;26.20;84.00
6429;DHT22;3247;48.946;10.220;2023-06-14T06:23:12;26.10;83.00
6429;DHT22;3247;48.946;10.220;2023-06-14T06:25:37;26.10;83.90
6429;DHT22;3247;48.946;10.220;2023-06-14T06:28:03;25.40;83.70
6429;DHT22;3247;48.946;10.220;2023-06-14T06:30:28;26.20;82.80
6429;DHT22;3247;48.946;10.220;2023-06-14T06:32:54;26.60;82.00
6429;DHT22;3247;48.946;10.220;2023-06-14T06:35:20;26.70;82.80
6429;DHT22;3247;48.946;10.220;2023-06-14T06:37:46;27.40;80.10
6429;DHT22;3247;48.946;10.220;2023-06-14T06:40:11;28.10;80.70
6429;DHT22;3247;48.946;10.220;2023-06-14T06:42:37;27.90;78.70
6429;DHT22;3247;48.946;10.220;2023-06-14T06:45:03;29.00;76.40
6429;DHT22;3247;48.946;10.220;2023-06-14T06:47:28;29.00;77.40
6429;DHT22;3247;48.946;10.220;2023-06-14T06:49:54;29.30;73.80
6429;DHT22;3247;48.946;10.220;2023-06-14T06:52:19;29.00;74.70
6429;DHT22;3247;48.946;10.220;2023-06-14T06:54:45;28.80;76.00
6429;DHT22;3247;48.946;10.220;2023-06-14T06:57:10;30.10;73.00
6429;DHT22;3247;48.946;10.220;2023-06-14T06:59:36;30.00;71.50
6429;DHT22;3247;48.946;10.220;2023-06-14T07:02:01;30.50;69.90
6429;DHT22;3247;48.946;10.220;2023-06-14T07:04:27;30.20;70.30
6429;DHT22;3247;48.946;10.220;2023-06-14T07:06:52;30.60;70.30
6429;DHT22;3247;48.946;10.220;2023-06-14T07:09:18;30.20;69.10
6429;DHT22;3247;48.946;10.220;2023-06-14T07:11:45;29.60;69.60
6429;DHT22;3247;48.946;10.220;2023-06-14T07:14:11;29.60;71.70
6429;DHT22;3247;48.946;10.220;2023-06-14T07:16:36;30.00;69.60
6429;DHT22;3247;48.946;10.220;2023-06-14T07:19:02;30.40;69.80
6429;DHT22;3247;48.946;10.220;2023-06-14T07:21:28;30.50;71.50
6429;DHT22;3247;48.946;10.220;2023-06-14T07:23:53;31.40;68.20
6429;DHT22;3247;48.946;10.220;2023-06-14T07:26:19;31.20;69.40
6429;DHT22;3247;48.946;10.220;2023-06-14T07:28:48;32.00;66.00
6429;DHT22;3247;48.946;10.220;2023-06-14T07:31:14;32.70;64.70
6429;DHT22;3247;48.946;10.220;2023-06-14T07:33:40;31.40;67.30
6429;DHT22;3247;48.946;10.220;2023-06-14T07:36:06;32.20;64.20
6429;DHT22;3247;48.946;10.220;2023-06-14T07:38:31;32.80;62.80
6429;DHT22;3247;48.946;10.220;2023-06-14T07:40:57;30.90;65.50
6429;DHT22;3247;48.946;10.220;2023-06-14T07:43:22;31.50;66.90
6429;DHT22;3247;48.946;10.220;2023-06-14T07:45:48;32.00;64.90
6429;DHT22;3247;48.946;10.220;2023-06-14T07:48:13;31.40;66.40
6429;DHT22;3247;48.946;10.220;2023-06-14T07:50:38;31.30;63.30
6429;DHT22;3247;48.946;10.220;2023-06-14T07:53:04;31.00;64.10
6429;DHT22;3247;48.946;10.220;2023-06-14T07:55:29;30.50;67.40
6429;DHT22;3247;48.946;10.220;2023-06-14T07:57:55;30.40;67.40
6429;DHT22;3247;48.946;10.220;2023-06-14T08:00:21;30.90;65.00
6429;DHT22;3247;48.946;10.220;2023-06-14T08:02:46;31.60;64.00
6429;DHT22;3247;48.946;10.220;2023-06-14T08:05:12;32.30;62.50
6429;DHT22;3247;48.946;10.220;2023-06-14T08:07:38;31.90;62.90
6429;DHT22;3247;48.946;10.220;2023-06-14T08:10:04;31.60;62.10
6429;DHT22;3247;48.946;10.220;2023-06-14T08:12:30;32.00;62.00
6429;DHT22;3247;48.946;10.220;2023-06-14T08:14:56;32.10;59.70
6429;DHT22;3247;48.946;10.220;2023-06-14T08:17:21;31.30;64.00
6429;DHT22;3247;48.946;10.220;2023-06-14T08:19:46;30.40;64.00
6429;DHT22;3247;48.946;10.220;2023-06-14T08:22:12;30.70;63.30
6429;DHT22;3247;48.946;10.220;2023-06-14T08:24:38;30.60;64.20
6429;DHT22;3247;48.946;10.220;2023-06-14T08:27:05;30.40;63.10
6429;DHT22;3247;48.946;10.220;2023-06-14T08:29:31;30.10;65.60
6429;DHT22;3247;48.946;10.220;2023-06-14T08:31:57;29.40;63.70
6429;DHT22;3247;48.946;10.220;2023-06-14T08:34:23;29.10;66.00
6429;DHT22;3247;48.946;10.220;2023-06-14T08:36:51;29.00;66.20
6429;DHT22;3247;48.946;10.220;2023-06-14T08:39:17;28.60;65.10
6429;DHT22;3247;48.946;10.220;2023-06-14T08:41:46;28.10;65.30
6429;DHT22;3247;48.946;10.220;2023-06-14T08:44:14;28.20;67.10
6429;DHT22;3247;48.946;10.220;2023-06-14T08:46:40;28.10;67.30
6429;DHT22;3247;48.946;10.220;2023-06-14T08:49:07;28.60;67.10
6429;DHT22;3247;48.946;10.220;2023-06-14T08:51:33;28.90;67.50
6429;DHT22;3247;48.946;10.220;2023-06-14T08:54:02;28.20;64.30
6429;DHT22;3247;48.946;10.220;2023-06-14T08:56:29;27.40;65.00
6429;DHT22;3247;48.946;10.220;2023-06-14T08:58:55;27.40;64.60
6429;DHT22;3247;48.946;10.220;2023-06-14T09:01:21;27.20;67.20
6429;DHT22;3247;48.946;10.220;2023-06-14T09:03:48;26.70;68.10
6429;DHT22;3247;48.946;10.220;2023-06-14T09:06:14;26.40;67.50
6429;DHT22;3247;48.946;10.220;2023-06-14T09:08:43;26.30;69.30
6429;DHT22;3247;48.946;10.220;2023-06-14T09:11:13;26.90;68.80
6429;DHT22;3247;48.946;10.220;2023-06-14T09:13:39;27.10;67.60
6429;DHT22;3247;48.946;10.220;2023-06-14T09:16:06;27.30;67.90
6429;DHT22;3247;48.946;10.220;2023-06-14T09:18:34;27.00;69.00
6429;DHT22;3247;48.946;10.220;2023-06-14T09:21:00;26.80;70.70
6429;DHT22;3247;48.946;10.220;2023-06-14T09:23:25;26.80;67.40
6429;DHT22;3247;48.946;10.220;2023-06-14T09:25:51;26.60;69.60
6429;DHT22;3247;48.946;10.220;2023-06-14T09:28:16;26.80;68.10
6429;DHT22;3247;48.946;10.220;2023-06-14T09:30:42;27.40;69.40
6429;DHT22;3247;48.946;10.220;2023-06-14T09:33:08;28.00;67.10
6429;DHT22;3247;48.946;10.220;2023-06-14T09:35:33;27.90;65.30
6429;DHT22;3247;48.946;10.220;2023-06-14T09:37:59;28.00;66.30
6429;DHT22;3247;48.946;10.220;2023-06-14T09:40:26;28.00;68.80
6429;DHT22;3247;48.946;10.220;2023-06-14T09:42:52;27.70;67.70
6429;DHT22;3247;48.946;10.220;2023-06-14T09:45:18;28.20;68.30
6429;DHT22;3247;48.946;10.220;2023-06-14T09:47:49;28.50;66.70
6429;DHT22;3247;48.946;10.220;2023-06-14T09:50:14;28.30;68.50
6429;DHT22;3247;48.946;10.220;2023-06-14T09:52:40;28.30;66.30
6429;DHT22;3247;48.946;10.220;2023-06-14T09:55:11;27.80;67.20
6429;DHT22;3247;48.946;10.220;2023-06-14T09:57:42;27.60;68.50
6429;DHT22;3247;48.946;10.220;2023-06-14T10:00:11;27.30;69.50
6429;DHT22;3247;48.946;10.220;2023-06-14T10:02:38;27.40;70.40
6429;DHT22;3247;48.946;10.220;2023-06-14T10:05:05;26.80;70.40
6429;DHT22;3247;48.946;10.220;2023-06-14T10:10:05;26.70;67.10
6429;DHT22;3247;48.946;10.220;2023-06-14T10:12:31;26.10;66.00
6429;DHT22;3247;48.946;10.220;2023-06-14T10:14:57;26.20;68.20
6429;DHT22;3247;48.946;10.220;2023-06-14T10:17:46;26.70;67.10
6429;DHT22;3247;48.946;10.220;2023-06-14T10:20:19;26.20;65.90
6429;DHT22;3247;48.946;10.220;2023-06-14T10:23:29;26.00;67.40
6429;DHT22;3247;48.946;10.220;2023-06-14T10:25:35;25.80;66.50
6429;DHT22;3247;48.946;10.220;2023-06-14T10:28:14;25.60;66.70
6429;DHT22;3247;48.946;10.220;2023-06-14T10:30:41;25.10;70.70
6429;DHT22;3247;48.946;10.220;2023-06-14T10:33:26;25.00;69.60
6429;DHT22;3247;48.946;10.220;2023-06-14T10:36:06;25.50;72.40
6429;DHT22;3247;48.946;10.220;2023-06-14T10:38:32;25.50;68.70
6429;DHT22;3247;48.946;10.220;2023-06-14T10:40:58;26.20;69.60
6429;DHT22;3247;48.946;10.220;2023-06-14T10:43:24;26.30;67.10
6429;DHT22;3247;48.946;10.220;2023-06-14T10:48:34;25.80;69.30
6429;DHT22;3247;48.946;10.220;2023-06-14T10:51:05;25.30;68.60
6429;DHT22;3247;48.946;10.220;2023-06-14T10:53:38;25.10;71.00
6429;DHT22;3247;48.946;10.220;2023-06-14T10:56:07;24.50;69.50
6429;DHT22;3247;48.946;10.220;2023-06-14T10:58:36;24.40;70.90
6429;DHT22;3247;48.946;10.220;2023-06-14T11:01:02;23.80;72.00
6429;DHT22;3247;48.946;10.220;2023-06-14T11:05:59;23.70;71.30
6429;DHT22;3247;48.946;10.220;2023-06-14T11:10:50;23.60;68.90
6429;DHT22;3247;48.946;10.220;2023-06-14T11:13:16;24.10;72.10
6429;DHT22;3247;48.946;10.220;2023-06-14T11:15:45;24.20;69.70
6429;DHT22;3247;48.946;10.220;2023-06-14T11:18:18;24.50;70.70
6429;DHT22;3247;48.946;10.220;2023-06-14T11:20:45;24.50;68.90
6429;DHT22;3247;48.946;10.220;2023-06-14T11:23:11;24.20;67.90
6429;DHT22;3247;48.946;10.220;2023-06-14T11:25:36;24.40;70.70
6429;DHT22;3247;48.946;10.220;2023-06-14T11:28:02;24.70;71.20
6429;DHT22;3247;48.946;10.220;2023-06-14T11:30:27;25.20;71.00
6429;DHT22;3247;48.946;10.220;2023-06-14T11:32:53;25.60;69.80
6429;DHT22;3247;48.946;10.220;2023-06-14T11:35:19;25.00;67.00
6429;DHT22;3247;48.946;10.220;2023-06-14T11:37:46;25.10;70.10
6429;DHT22;3247;48.946;10.220;2023-06-14T11:40:13;25.10;71.40
6429;DHT22;3247;48.946;10.220;2023-06-14T11:42:39;24.50;68.60
6429;DHT22;3247;48.946;10.220;2023-06-14T11:45:08;24.20;69.00
6429;DHT22;3247;48.946;10.220;2023-06-14T11:47:34;23.80;69.10
6429;DHT22;3247;48.946;10.220;2023-06-14T11:50:00;23.90;71.00
6429;DHT22;3247;48.946;10.220;2023-06-14T11:52:25;24.00;69.10
6429;DHT22;3247;48.946;10.220;2023-06-14T11:54:51;24.10;74.20
6429;DHT22;3247;48.946;10.220;2023-06-14T11:57:22;24.60;70.30
6429;DHT22;3247;48.946;10.220;2023-06-14T11:59:48;25.10;70.60
6429;DHT22;3247;48.946;10.220;2023-06-14T12:02:14;25.50;67.40
6429;DHT22;3247;48.946;10.220;2023-06-14T12:04:43;26.10;68.80
6429;DHT22;3247;48.946;10.220;2023-06-14T12:07:09;26.20;66.70
6429;DHT22;3247;48.946;10.220;2023-06-14T12:09:36;26.60;65.30
6429;DHT22;3247;48.946;10.220;2023-06-14T12:12:02;26.90;66.20
6429;DHT22;3247;48.946;10.220;2023-06-14T12:14:29;26.60;71.20
6429;DHT22;3247;48.946;10.220;2023-06-14T12:17:03;26.30;68.60
6429;DHT22;3247;48.946;10.220;2023-06-14T12:19:28;25.90;67.50
6429;DHT22;3247;48.946;10.220;2023-06-14T12:21:54;26.10;68.40
6429;DHT22;3247;48.946;10.220;2023-06-14T12:24:19;26.60;68.70
6429;DHT22;3247;48.946;10.220;2023-06-14T12:26:45;26.80;68.50
6429;DHT22;3247;48.946;10.220;2023-06-14T12:29:15;27.10;67.70
6429;DHT22;3247;48.946;10.220;2023-06-14T12:31:41;26.70;65.50
6429;DHT22;3247;48.946;10.220;2023-06-14T12:34:07;26.60;66.40
6429;DHT22;3247;48.946;10.220;2023-06-14T12:36:32;27.00;64.10
6429;DHT22;3247;48.946;10.220;2023-06-14T12:38:59;26.90;63.50
6429;DHT22;3247;48.946;10.220;2023-06-14T12:41:24;27.10;64.30
6429;DHT22;3247;48.946;10.220;2023-06-14T12:43:51;26.70;66.20
6429;DHT22;3247;48.946;10.220;2023-06-14T12:46:17;26.60;67.90
6429;DHT22;3247;48.946;10.220;2023-06-14T12:48:42;26.20;66.40
6429;DHT22;3247;48.946;10.220;2023-06-14T12:51:08;25.40;66.30
6429;DHT22;3247;48.946;10.220;2023-06-14T12:53:33;25.40;68.60
6429;DHT22;3247;48.946;10.220;2023-06-14T12:55:59;25.30;68.90
6429;DHT22;3247;48.946;10.220;2023-06-14T12:58:25;25.40;68.20
6429;DHT22;3247;48.946;10.220;2023-06-14T13:00:50;25.10;70.80
6429;DHT22;3247;48.946;10.220;2023-06-14T13:03:16;25.00;70.30
6429;DHT22;3247;48.946;10.220;2023-06-14T13:05:41;25.10;70.50
6429;DHT22;3247;48.946;10.220;2023-06-14T13:08:08;25.30;69.10
6429;DHT22;3247;48.946;10.220;2023-06-14T13:10:34;25.30;71.30
6429;DHT22;3247;48.946;10.220;2023-06-14T13:12:59;25.50;70.10
6429;DHT22;3247;48.946;10.220;2023-06-14T13:15:25;25.60;69.10
6429;DHT22;3247;48.946;10.220;2023-06-14T13:17:51;25.50;67.60
6429;DHT22;3247;48.946;10.220;2023-06-14T13:20:16;25.70;67.60
6429;DHT22;3247;48.946;10.220;2023-06-14T13:22:42;26.00;67.70
6429;DHT22;3247;48.946;10.220;2023-06-14T13:25:07;25.80;67.80
6429;DHT22;3247;48.946;10.220;2023-06-14T13:27:33;25.80;67.90
6429;DHT22;3247;48.946;10.220;2023-06-14T13:29:58;25.70;67.60
6429;DHT22;3247;48.946;10.220;2023-06-14T13:32:24;25.60;71.00
6429;DHT22;3247;48.946;10.220;2023-06-14T13:34:49;25.70;68.40
6429;DHT22;3247;48.946;10.220;2023-06-14T13:37:15;25.70;68.80
6429;DHT22;3247;48.946;10.220;2023-06-14T13:39:41;25.60;67.60
6429;DHT22;3247;48.946;10.220;2023-06-14T13:42:06;25.10;66.90
6429;DHT22;3247;48.946;10.220;2023-06-14T13:44:32;25.10;66.80
6429;DHT22;3247;48.946;10.220;2023-06-14T13:46:57;25.20;68.10
6429;DHT22;3247;48.946;10.220;2023-06-14T13:49:23;25.00;68.20
6429;DHT22;3247;48.946;10.220;2023-06-14T13:51:48;24.90;66.90
6429;DHT22;3247;48.946;10.220;2023-06-14T13:54:14;24.90;65.10
6429;DHT22;3247;48.946;10.220;2023-06-14T13:56:40;25.00;66.10
6429;DHT22;3247;48.946;10.220;2023-06-14T13:59:11;25.10;69.00
6429;DHT22;3247;48.946;10.220;2023-06-14T14:01:37;25.10;67.70
6429;DHT22;3247;48.946;10.220;2023-06-14T14:04:03;25.10;68.60
6429;DHT22;3247;48.946;10.220;2023-06-14T14:06:28;25.00;69.10
6429;DHT22;3247;48.946;10.220;2023-06-14T14:08:53;24.80;69.40
6429;DHT22;3247;48.946;10.220;2023-06-14T14:11:19;24.60;69.40
6429;DHT22;3247;48.946;10.220;2023-06-14T14:13:45;24.70;71.40
6429;DHT22;3247;48.946;10.220;2023-06-14T14:16:12;24.20;71.50
6429;DHT22;3247;48.946;10.220;2023-06-14T14:18:38;24.20;70.30
6429;DHT22;3247;48.946;10.220;2023-06-14T14:21:03;24.10;69.30
6429;DHT22;3247;48.946;10.220;2023-06-14T14:23:29;23.80;71.20
6429;DHT22;3247;48.946;10.220;2023-06-14T14:25:54;23.60;69.50
6429;DHT22;3247;48.946;10.220;2023-06-14T14:28:25;23.50;68.40
6429;DHT22;3247;48.946;10.220;2023-06-14T14:30:51;23.40;69.60
6429;DHT22;3247;48.946;10.220;2023-06-14T14:33:16;23.40;70.10
6429;DHT22;3247;48.946;10.220;2023-06-14T14:35:43;23.30;70.90
6429;DHT22;3247;48.946;10.220;2023-06-14T14:38:09;23.40;69.40
6429;DHT22;3247;48.946;10.220;2023-06-14T14:40:35;23.30;67.10
6429;DHT22;3247;48.946;10.220;2023-06-14T14:43:00;23.40;69.10
6429;DHT22;3247;48.946;10.220;2023-06-14T14:45:25;23.80;69.80
6429;DHT22;3247;48.946;10.220;2023-06-14T14:47:51;24.10;70.60
6429;DHT22;3247;48.946;10.220;2023-06-14T14:50:16;24.20;69.50
6429;DHT22;3247;48.946;10.220;2023-06-14T14:52:42;24.30;70.00
6429;DHT22;3247;48.946;10.220;2023-06-14T14:55:07;24.50;67.00
6429;DHT22;3247;48.946;10.220;2023-06-14T14:57:33;24.60;70.40
6429;DHT22;3247;48.946;10.220;2023-06-14T14:59:59;24.40;71.40
6429;DHT22;3247;48.946;10.220;2023-06-14T15:02:24;24.70;71.60
6429;DHT22;3247;48.946;10.220;2023-06-14T15:04:50;24.50;72.10
6429;DHT22;3247;48.946;10.220;2023-06-14T15:07:15;24.60;70.50
6429;DHT22;3247;48.946;10.220;2023-06-14T15:09:40;24.20;70.10
6429;DHT22;3247;48.946;10.220;2023-06-14T15:12:06;23.80;70.70
6429;DHT22;3247;48.946;10.220;2023-06-14T15:14:32;23.40;70.80
6429;DHT22;3247;48.946;10.220;2023-06-14T15:16:58;23.50;72.10
6429;DHT22;3247;48.946;10.220;2023-06-14T15:19:23;23.20;71.20
6429;DHT22;3247;48.946;10.220;2023-06-14T15:21:49;23.10;71.80
6429;DHT22;3247;48.946;10.220;2023-06-14T15:24:14;23.00;71.60
6429;DHT22;3247;48.946;10.220;2023-06-14T15:26:40;23.00;73.20
6429;DHT22;3247;48.946;10.220;2023-06-14T15:29:05;22.90;74.00
6429;DHT22;3247;48.946;10.220;2023-06-14T15:31:31;22.90;73.50
6429;DHT22;3247;48.946;10.220;2023-06-14T15:33:56;23.00;73.50
6429;DHT22;3247;48.946;10.220;2023-06-14T15:36:22;23.10;72.10
6429;DHT22;3247;48.946;10.220;2023-06-14T15:38:47;23.20;72.80
6429;DHT22;3247;48.946;10.220;2023-06-14T15:41:13;23.30;75.00
6429;DHT22;3247;48.946;10.220;2023-06-14T15:43:38;23.40;75.20
6429;DHT22;3247;48.946;10.220;2023-06-14T15:46:04;23.40;71.50
6429;DHT22;3247;48.946;10.220;2023-06-14T15:48:29;23.40;75.00
6429;DHT22;3247;48.946;10.220;2023-06-14T15:50:55;23.60;73.10
6429;DHT22;3247;48.946;10.220;2023-06-14T15:53:20;23.70;72.40
6429;DHT22;3247;48.946;10.220;2023-06-14T15:55:46;23.80;72.50
6429;DHT22;3247;48.946;10.220;2023-06-14T15:58:14;23.80;74.30